Time;durP1;ratioP1;P1;durP2;ratioP2;P2;SDS_P1;SDS_P2;PMS_P1;PMS_P2;Temp;Humidity;BMP_temperature;BMP_pressure;BME280_temperature;BME280_humidity;BME280_pressure;Samples;Min_cycle;Max_cycle;Signal;HPM_P1;HPM_P2
2023/01/07 01:06:52;;;;;;;37.75;28.42;;;11.60;91.00;;;;;;6238380;22;1830864;-73
2023/01/07 01:09:19;;;;;;;39.65;29.15;;;11.60;91.00;;;;;;6244209;23;20070;-74
2023/01/07 01:11:45;;;;;;;37.22;28.98;;;11.60;91.00;;;;;;6246341;22;20020;-73
2023/01/07 01:14:10;;;;;;;37.33;28.05;;;11.60;91.00;;;;;;6246013;23;20083;-73
2023/01/07 01:16:36;;;;;;;36.05;28.23;;;11.70;91.00;;;;;;6244636;23;20004;-74
2023/01/07 01:19:02;;;;;;;37.72;28.75;;;11.70;91.00;;;;;;6244239;23;20031;-74
2023/01/07 01:21:27;;;;;;;38.63;27.15;;;11.80;91.00;;;;;;6244720;23;20020;-74
2023/01/07 01:23:54;;;;;;;39.22;27.60;;;11.90;91.00;;;;;;6246060;23;20369;-73
2023/01/07 01:26:19;;;;;;;33.92;26.83;;;11.90;90.90;;;;;;6246321;22;20055;-73
2023/01/07 01:28:45;;;;;;;40.13;27.88;;;11.90;90.90;;;;;;6244767;23;20000;-74
2023/01/07 01:31:12;;;;;;;36.58;26.10;;;11.90;90.90;;;;;;6246253;22;20031;-75
2023/01/07 01:33:37;;;;;;;37.30;26.85;;;12.00;91.00;;;;;;6245756;22;20079;-74
2023/01/07 01:36:06;;;;;;;35.97;27.08;;;12.00;90.90;;;;;;6244612;23;20035;-75
2023/01/07 01:38:32;;;;;;;34.88;25.38;;;12.00;90.80;;;;;;6244354;23;20004;-73
2023/01/07 01:40:58;;;;;;;32.70;26.33;;;12.00;90.80;;;;;;6244517;23;20546;-73
2023/01/07 01:43:34;;;;;;;33.08;26.30;;;12.00;90.70;;;;;;6244732;23;20011;-75
2023/01/07 01:46:36;;;;;;;32.72;25.52;;;12.00;90.80;;;;;;6244446;23;20420;-74
2023/01/07 01:49:24;;;;;;;32.00;25.45;;;12.00;90.90;;;;;;6207620;23;20333;-74
2023/01/07 01:52:05;;;;;;;32.55;25.13;;;12.10;90.90;;;;;;6244356;23;20062;-74
2023/01/07 01:54:32;;;;;;;35.40;25.58;;;12.10;90.90;;;;;;6244382;23;20000;-73
2023/01/07 01:57:03;;;;;;;34.10;24.88;;;12.20;90.90;;;;;;6245927;22;20000;-74
2023/01/07 01:59:33;;;;;;;32.72;24.05;;;12.10;90.80;;;;;;6245497;23;20004;-73
2023/01/07 02:01:58;;;;;;;30.58;23.20;;;12.10;90.70;;;;;;6244860;23;20027;-74
2023/01/07 02:04:26;;;;;;;33.90;24.55;;;12.10;90.70;;;;;;6246292;23;20332;-74
2023/01/07 02:07:16;;;;;;;34.67;23.85;;;12.10;90.80;;;;;;6249727;22;20093;-73
2023/01/07 02:09:42;;;;;;;29.65;22.85;;;12.10;90.80;;;;;;6248526;22;20011;-72
2023/01/07 02:12:41;;;;;;;31.85;23.30;;;12.10;90.90;;;;;;6248799;22;20447;-73
2023/01/07 02:15:45;;;;;;;29.05;21.80;;;12.10;90.70;;;;;;6248756;22;20021;-72
2023/01/07 02:18:20;;;;;;;29.70;21.30;;;12.10;90.60;;;;;;6275922;22;20329;-71
2023/01/07 02:21:02;;;;;;;29.98;20.63;;;12.10;90.60;;;;;;6275772;22;20067;-73
2023/01/07 02:23:46;;;;;;;27.25;20.55;;;12.20;90.50;;;;;;6275563;22;20030;-73
2023/01/07 02:26:14;;;;;;;25.98;20.13;;;12.20;90.60;;;;;;6275868;22;20337;-73
2023/01/07 02:28:59;;;;;;;26.60;20.77;;;12.20;90.30;;;;;;6275760;22;20424;-71
2023/01/07 02:32:03;;;;;;;30.33;21.08;;;12.20;90.40;;;;;;6275388;22;20447;-73
2023/01/07 02:34:53;;;;;;;26.42;19.17;;;12.10;90.10;;;;;;6217806;22;20000;-72
2023/01/07 02:37:41;;;;;;;27.20;19.90;;;12.10;90.40;;;;;;6248756;22;20035;-72
2023/01/07 02:40:10;;;;;;;25.08;19.73;;;12.10;90.20;;;;;;6275695;22;20079;-71
2023/01/07 02:42:54;;;;;;;29.75;20.27;;;12.20;90.20;;;;;;6276154;22;20010;-73
2023/01/07 02:45:43;;;;;;;28.35;18.65;;;12.20;90.40;;;;;;6275465;22;20451;-72
2023/01/07 02:48:14;;;;;;;27.63;20.35;;;12.20;90.30;;;;;;6248405;22;20004;-73
2023/01/07 02:50:40;;;;;;;25.83;19.38;;;12.20;90.10;;;;;;6248242;22;20014;-73
2023/01/07 02:53:09;;;;;;;27.10;20.13;;;12.20;90.30;;;;;;6275816;22;20007;-73
2023/01/07 02:55:42;;;;;;;26.05;19.77;;;12.20;90.30;;;;;;6275855;22;19996;-73
2023/01/07 02:58:30;;;;;;;28.48;20.05;;;12.20;90.00;;;;;;6275518;22;20004;-73
2023/01/07 03:01:20;;;;;;;26.52;18.95;;;12.30;90.10;;;;;;6275523;22;20000;-73
2023/01/07 03:03:59;;;;;;;27.52;19.13;;;12.30;90.00;;;;;;6275677;22;20000;-73
2023/01/07 03:06:59;;;;;;;27.13;18.77;;;12.20;89.90;;;;;;6248168;22;20039;-71
2023/01/07 03:09:57;;;;;;;26.13;19.23;;;12.20;90.00;;;;;;6248305;22;20324;-71
2023/01/07 03:12:26;;;;;;;24.42;18.45;;;12.20;89.90;;;;;;6248439;22;20004;-72
2023/01/07 03:15:12;;;;;;;24.45;19.30;;;12.20;90.10;;;;;;6275612;22;20000;-73
2023/01/07 03:17:48;;;;;;;24.35;18.80;;;12.00;90.20;;;;;;6274662;22;20069;-72
2023/01/07 03:20:17;;;;;;;26.42;19.25;;;12.00;90.30;;;;;;6248113;22;20332;-72
2023/01/07 03:22:44;;;;;;;27.05;18.60;;;12.00;90.20;;;;;;6275667;22;20000;-72
2023/01/07 03:25:12;;;;;;;27.60;19.25;;;12.00;90.30;;;;;;6275387;22;19996;-73
2023/01/07 03:27:41;;;;;;;25.00;18.35;;;11.90;90.10;;;;;;6248033;22;20008;-73
2023/01/07 03:30:11;;;;;;;26.40;18.23;;;11.90;90.20;;;;;;6275115;22;20022;-72
2023/01/07 03:32:45;;;;;;;22.77;17.70;;;11.90;90.20;;;;;;6247704;22;20003;-72
2023/01/07 03:35:11;;;;;;;21.17;17.42;;;12.00;90.30;;;;;;6247833;22;19999;-73
2023/01/07 03:37:38;;;;;;;24.15;17.80;;;12.00;90.10;;;;;;6275204;22;20004;-72
2023/01/07 03:40:08;;;;;;;24.63;17.50;;;11.90;90.20;;;;;;6275107;22;19996;-72
2023/01/07 03:42:40;;;;;;;22.38;17.27;;;11.90;90.10;;;;;;6248469;22;20068;-73
2023/01/07 03:45:08;;;;;;;21.58;16.65;;;12.00;90.20;;;;;;6249654;22;20003;-73
2023/01/07 03:47:35;;;;;;;21.33;16.73;;;11.90;90.10;;;;;;6249564;22;20410;-73
2023/01/07 03:50:01;;;;;;;21.92;16.77;;;11.90;90.20;;;;;;6277548;22;19995;-72
2023/01/07 03:52:27;;;;;;;22.50;16.75;;;11.90;90.10;;;;;;6277048;22;20006;-72
2023/01/07 03:54:53;;;;;;;21.33;16.48;;;11.90;90.10;;;;;;6277039;22;20407;-71
2023/01/07 03:57:18;;;;;;;19.75;15.90;;;11.90;90.10;;;;;;6249636;22;20007;-72
2023/01/07 03:59:44;;;;;;;21.25;16.48;;;11.90;90.00;;;;;;6249713;22;20378;-72
2023/01/07 04:02:10;;;;;;;23.33;15.68;;;11.90;90.10;;;;;;6249874;22;20146;-73
2023/01/07 04:04:35;;;;;;;22.20;16.27;;;11.90;90.00;;;;;;6277237;22;20003;-74
2023/01/07 04:07:01;;;;;;;22.52;16.63;;;12.00;90.10;;;;;;6277164;22;20096;-72
2023/01/07 04:09:27;;;;;;;20.50;16.60;;;12.00;90.00;;;;;;6277183;22;20010;-72
2023/01/07 04:11:53;;;;;;;22.00;16.52;;;12.10;90.00;;;;;;6277065;22;20018;-72
2023/01/07 04:14:18;;;;;;;23.45;15.35;;;12.00;89.80;;;;;;6277123;22;19996;-72
2023/01/07 04:16:44;;;;;;;19.90;15.88;;;12.00;90.00;;;;;;6276860;22;20004;-72
2023/01/07 04:19:10;;;;;;;20.23;14.90;;;12.00;90.10;;;;;;6276869;22;20098;-71
2023/01/07 04:21:35;;;;;;;21.38;14.85;;;12.00;90.00;;;;;;6249480;22;20285;-73
2023/01/07 04:24:01;;;;;;;23.02;14.52;;;12.00;89.90;;;;;;6249581;22;20054;-71
2023/01/07 04:26:27;;;;;;;22.63;14.75;;;12.00;89.80;;;;;;6276765;22;20011;-71
2023/01/07 04:28:52;;;;;;;18.25;13.90;;;12.00;90.00;;;;;;6249788;22;19999;-73
2023/01/07 04:31:18;;;;;;;20.55;13.68;;;12.00;89.60;;;;;;6249627;22;20010;-73
2023/01/07 04:33:44;;;;;;;19.45;13.55;;;12.00;89.80;;;;;;6249243;22;20008;-72
2023/01/07 04:36:12;;;;;;;17.98;13.43;;;11.90;89.50;;;;;;6276709;22;20083;-72
2023/01/07 04:38:37;;;;;;;18.52;12.98;;;11.90;90.00;;;;;;6249576;22;20004;-72
2023/01/07 04:41:03;;;;;;;18.13;12.93;;;11.90;89.80;;;;;;6249331;22;20321;-73
2023/01/07 04:43:29;;;;;;;20.90;12.85;;;11.90;89.70;;;;;;6276555;22;19999;-72
2023/01/07 04:45:54;;;;;;;17.05;11.77;;;11.90;89.60;;;;;;6249095;22;20344;-72
2023/01/07 04:48:20;;;;;;;18.50;11.98;;;11.90;89.90;;;;;;6276459;22;19995;-73
2023/01/07 04:50:47;;;;;;;18.75;12.13;;;11.90;90.00;;;;;;6249374;22;20003;-72
2023/01/07 04:53:13;;;;;;;17.60;12.43;;;11.90;89.90;;;;;;6276437;22;20042;-72
2023/01/07 04:55:39;;;;;;;15.70;11.20;;;11.90;89.90;;;;;;6249171;22;20046;-73
2023/01/07 04:58:05;;;;;;;13.48;9.98;;;11.90;89.70;;;;;;6249652;22;20420;-73
2023/01/07 05:00:30;;;;;;;15.00;10.30;;;11.80;89.80;;;;;;6249223;22;20004;-72
2023/01/07 05:02:56;;;;;;;16.38;10.98;;;11.80;89.80;;;;;;6249279;22;20424;-73
2023/01/07 05:05:22;;;;;;;17.88;10.68;;;11.80;89.80;;;;;;6275914;22;20197;-72
2023/01/07 05:07:47;;;;;;;13.70;9.63;;;11.80;89.70;;;;;;6276212;22;20012;-73
2023/01/07 05:10:13;;;;;;;17.42;9.63;;;11.80;89.80;;;;;;6249342;22;19999;-72
2023/01/07 05:12:39;;;;;;;12.57;9.05;;;11.80;89.60;;;;;;6249360;22;20086;-73
2023/01/07 05:15:05;;;;;;;14.23;10.00;;;11.80;89.30;;;;;;6249205;22;20000;-73
2023/01/07 05:17:31;;;;;;;14.68;10.32;;;11.80;89.30;;;;;;6249060;22;20003;-72
2023/01/07 05:19:57;;;;;;;17.02;10.90;;;11.80;89.20;;;;;;6276073;22;20000;-72
2023/01/07 05:22:23;;;;;;;13.55;9.20;;;11.70;89.20;;;;;;6248964;22;20003;-72
2023/01/07 05:24:48;;;;;;;13.70;9.35;;;11.80;89.30;;;;;;6249053;22;20002;-73
2023/01/07 05:27:14;;;;;;;15.75;10.40;;;11.80;89.20;;;;;;6248805;22;20436;-72
2023/01/07 05:29:40;;;;;;;14.57;9.75;;;11.80;89.40;;;;;;6248658;22;20109;-72
2023/01/07 05:32:05;;;;;;;14.70;10.02;;;11.80;89.10;;;;;;6276348;22;20004;-73
2023/01/07 05:34:31;;;;;;;19.10;11.27;;;11.80;89.10;;;;;;6249038;22;20332;-72
2023/01/07 05:36:57;;;;;;;15.90;9.70;;;11.70;89.40;;;;;;6276117;22;20004;-72
2023/01/07 05:39:22;;;;;;;15.38;10.15;;;11.70;89.40;;;;;;6276218;22;20008;-72
2023/01/07 05:41:48;;;;;;;17.13;10.00;;;11.70;89.60;;;;;;6276107;22;19999;-72
2023/01/07 05:44:14;;;;;;;17.17;11.27;;;11.70;89.40;;;;;;6248702;22;20039;-73
2023/01/07 05:46:40;;;;;;;18.02;9.20;;;11.80;89.50;;;;;;6275885;22;20016;-73
2023/01/07 05:49:06;;;;;;;13.35;9.18;;;11.80;89.30;;;;;;6248554;22;20389;-72
2023/01/07 05:51:31;;;;;;;13.98;10.13;;;11.80;89.30;;;;;;6248656;22;20027;-72
2023/01/07 05:53:57;;;;;;;14.40;9.27;;;11.80;89.30;;;;;;6248898;22;20011;-73
2023/01/07 05:56:23;;;;;;;14.35;9.25;;;11.80;89.30;;;;;;6248911;22;20505;-73
2023/01/07 05:58:48;;;;;;;15.68;9.88;;;11.80;89.50;;;;;;6249017;22;20019;-73
2023/01/07 06:01:14;;;;;;;13.98;8.45;;;11.80;89.40;;;;;;6275683;22;20074;-72
2023/01/07 06:03:40;;;;;;;13.55;8.82;;;11.80;89.20;;;;;;6248790;22;20057;-72
2023/01/07 06:06:06;;;;;;;14.30;8.82;;;11.80;89.00;;;;;;6248370;22;20348;-71
2023/01/07 06:08:36;;;;;;;12.93;9.05;;;11.80;89.30;;;;;;6248262;22;20036;-73
2023/01/07 06:11:02;;;;;;;13.52;7.97;;;11.80;89.40;;;;;;6276015;22;20007;-72
2023/01/07 06:13:28;;;;;;;11.20;7.97;;;11.90;89.60;;;;;;6248447;22;20027;-72
2023/01/07 06:16:00;;;;;;;13.68;8.50;;;11.90;89.30;;;;;;6275752;22;20420;-72
2023/01/07 06:18:26;;;;;;;12.50;7.70;;;11.80;89.10;;;;;;6248773;22;20026;-75
2023/01/07 06:20:51;;;;;;;10.35;7.60;;;11.80;89.20;;;;;;6248528;22;20035;-72
2023/01/07 06:23:17;;;;;;;9.55;7.15;;;11.80;89.20;;;;;;6275743;22;20027;-72
2023/01/07 06:25:43;;;;;;;11.57;7.45;;;11.80;88.90;;;;;;6248182;22;20076;-73
2023/01/07 06:28:08;;;;;;;13.13;7.90;;;11.90;89.90;;;;;;6275701;22;20134;-73
2023/01/07 06:30:34;;;;;;;12.57;7.30;;;11.90;88.90;;;;;;6248433;22;20063;-73
2023/01/07 06:33:00;;;;;;;10.18;7.25;;;11.90;89.00;;;;;;6275509;22;20026;-72
2023/01/07 06:35:26;;;;;;;10.68;6.97;;;11.90;89.10;;;;;;6248343;22;19992;-73
2023/01/07 06:37:51;;;;;;;14.23;7.60;;;11.90;88.90;;;;;;6248244;22;20500;-72
2023/01/07 06:40:17;;;;;;;11.18;7.18;;;11.90;88.90;;;;;;6248474;22;20069;-71
2023/01/07 06:42:43;;;;;;;18.35;7.28;;;12.00;88.90;;;;;;6275500;22;20003;-72
2023/01/07 06:45:09;;;;;;;13.40;7.32;;;12.00;88.90;;;;;;6275177;22;20420;-73
2023/01/07 06:47:35;;;;;;;10.80;6.72;;;12.00;88.80;;;;;;6275348;22;20339;-72
2023/01/07 06:50:01;;;;;;;10.68;5.95;;;12.00;88.80;;;;;;6248414;22;20007;-74
2023/01/07 06:52:27;;;;;;;11.57;5.97;;;12.00;88.60;;;;;;6248546;22;20054;-72
2023/01/07 06:54:53;;;;;;;9.15;5.78;;;11.90;88.20;;;;;;6248336;22;20324;-73
2023/01/07 06:57:18;;;;;;;8.00;5.38;;;11.90;88.40;;;;;;6248295;22;20004;-73
2023/01/07 06:59:44;;;;;;;16.27;5.43;;;11.90;88.20;;;;;;6275568;22;20003;-73
2023/01/07 07:02:22;;;;;;;14.13;5.47;;;11.90;88.30;;;;;;6275308;22;20003;-72
2023/01/07 07:04:48;;;;;;;10.05;5.38;;;11.90;88.40;;;;;;6275430;22;20004;-72
2023/01/07 07:07:14;;;;;;;9.02;4.97;;;11.90;88.30;;;;;;6248081;22;20020;-74
2023/01/07 07:09:40;;;;;;;9.20;5.45;;;11.90;87.90;;;;;;6248313;22;20008;-72
2023/01/07 07:12:06;;;;;;;9.60;5.18;;;11.90;88.20;;;;;;6275059;22;20025;-73
2023/01/07 07:14:32;;;;;;;10.57;5.50;;;12.00;88.00;;;;;;6275432;22;20472;-73
2023/01/07 07:16:58;;;;;;;10.02;5.40;;;12.00;88.00;;;;;;6248159;22;20027;-73
2023/01/07 07:19:24;;;;;;;9.13;5.78;;;12.00;87.80;;;;;;6277467;22;20028;-73
2023/01/07 07:21:49;;;;;;;6.68;4.93;;;11.90;87.60;;;;;;6277444;22;20006;-72
2023/01/07 07:24:15;;;;;;;8.95;5.57;;;12.00;87.80;;;;;;6276941;22;20079;-73
2023/01/07 07:26:41;;;;;;;6.53;4.50;;;12.00;87.60;;;;;;6249679;22;20065;-73
2023/01/07 07:29:09;;;;;;;8.20;5.22;;;12.10;87.20;;;;;;6249971;22;20054;-73
2023/01/07 07:31:35;;;;;;;9.02;4.95;;;12.10;87.40;;;;;;6250357;22;20004;-74
2023/01/07 07:34:01;;;;;;;10.00;5.47;;;12.10;87.20;;;;;;6277090;22;20000;-73
2023/01/07 07:36:26;;;;;;;9.23;5.40;;;12.10;87.00;;;;;;6250143;22;20087;-73
2023/01/07 07:38:52;;;;;;;13.18;5.50;;;12.20;86.90;;;;;;6277301;22;20032;-75
2023/01/07 07:41:18;;;;;;;9.70;6.30;;;12.20;87.10;;;;;;6249921;22;20008;-74
2023/01/07 07:43:43;;;;;;;12.10;6.75;;;12.20;87.00;;;;;;6249943;22;20010;-73
2023/01/07 07:46:09;;;;;;;11.40;6.70;;;12.30;86.90;;;;;;6276779;22;20090;-74
2023/01/07 07:48:35;;;;;;;14.60;7.63;;;12.30;86.80;;;;;;6249441;22;20078;-73
2023/01/07 07:51:01;;;;;;;12.48;7.60;;;12.40;86.90;;;;;;6249753;22;20015;-73
2023/01/07 07:53:26;;;;;;;12.27;7.82;;;12.40;86.50;;;;;;6276940;22;20130;-73
2023/01/07 07:55:52;;;;;;;12.57;8.02;;;12.50;86.60;;;;;;6277135;22;20000;-74
2023/01/07 07:58:18;;;;;;;13.02;7.63;;;12.50;86.60;;;;;;6249933;22;20004;-73
2023/01/07 08:00:45;;;;;;;13.55;8.40;;;12.50;86.40;;;;;;6249478;22;20004;-73
2023/01/07 08:03:11;;;;;;;12.40;7.53;;;12.50;85.70;;;;;;6249373;22;20054;-74
2023/01/07 08:05:59;;;;;;;13.55;8.13;;;12.50;86.40;;;;;;6276979;22;20428;-73
2023/01/07 08:08:24;;;;;;;11.95;7.93;;;12.50;85.60;;;;;;6249425;22;20012;-73
2023/01/07 08:10:53;;;;;;;15.48;8.23;;;12.50;86.20;;;;;;6248555;22;20015;-72
2023/01/07 08:13:18;;;;;;;12.38;7.43;;;12.60;86.50;;;;;;6249413;22;19999;-73
2023/01/07 08:15:45;;;;;;;11.85;8.43;;;12.70;86.10;;;;;;6276471;22;20011;-73
2023/01/07 08:18:11;;;;;;;18.45;8.60;;;12.80;86.20;;;;;;6249628;22;20420;-73
2023/01/07 08:20:37;;;;;;;11.20;8.02;;;12.80;86.00;;;;;;6248931;22;20088;-73
2023/01/07 08:23:04;;;;;;;16.40;9.38;;;12.90;86.10;;;;;;6276426;22;19996;-76
2023/01/07 08:25:31;;;;;;;15.40;9.55;;;12.90;86.00;;;;;;6248971;22;20031;-71
2023/01/07 08:27:58;;;;;;;11.85;8.68;;;12.90;85.80;;;;;;6275970;22;20367;-74
2023/01/07 08:30:24;;;;;;;15.63;9.38;;;13.00;85.90;;;;;;6248894;22;20004;-73
2023/01/07 08:32:50;;;;;;;12.68;8.95;;;13.10;86.00;;;;;;6248828;22;20157;-74
2023/01/07 08:35:16;;;;;;;18.38;9.25;;;13.10;85.90;;;;;;6248845;22;20505;-74
2023/01/07 08:37:42;;;;;;;16.83;8.80;;;13.20;85.60;;;;;;6248724;22;20004;-74
2023/01/07 08:40:09;;;;;;;13.98;8.70;;;13.20;85.70;;;;;;6248712;22;20000;-72
2023/01/07 08:42:35;;;;;;;18.15;9.45;;;13.20;85.40;;;;;;6275526;22;20328;-73
2023/01/07 08:45:01;;;;;;;20.48;10.32;;;13.30;85.60;;;;;;6248527;22;20000;-73
2023/01/07 08:47:27;;;;;;;16.17;9.65;;;13.30;85.40;;;;;;6276133;22;20090;-74
2023/01/07 08:49:53;;;;;;;15.77;9.00;;;13.30;85.40;;;;;;6248350;22;20020;-73
2023/01/07 08:52:20;;;;;;;16.70;10.23;;;13.30;85.60;;;;;;6276464;22;20011;-76
2023/01/07 08:54:47;;;;;;;14.35;9.45;;;13.30;85.40;;;;;;6276722;22;20353;-73
2023/01/07 08:57:12;;;;;;;17.77;10.23;;;13.40;85.50;;;;;;6275443;22;20023;-72
2023/01/07 08:59:39;;;;;;;18.77;10.35;;;13.40;85.50;;;;;;6275544;22;19999;-73
2023/01/07 09:02:12;;;;;;;16.83;9.80;;;13.50;85.20;;;;;;6248025;22;19999;-74
2023/01/07 09:04:37;;;;;;;17.08;9.70;;;13.50;85.30;;;;;;6274938;22;19999;-74
2023/01/07 09:07:03;;;;;;;16.38;9.77;;;13.50;85.00;;;;;;6274915;22;20020;-72
2023/01/07 09:09:29;;;;;;;14.73;9.40;;;13.60;84.90;;;;;;6275582;22;19999;-74
2023/01/07 09:11:54;;;;;;;15.32;10.43;;;13.60;85.10;;;;;;6248361;22;20372;-73
2023/01/07 09:14:20;;;;;;;15.27;9.82;;;13.70;84.90;;;;;;6248280;22;20053;-76
2023/01/07 09:16:46;;;;;;;15.30;10.07;;;13.60;84.60;;;;;;6247631;22;20004;-74
2023/01/07 09:19:12;;;;;;;14.55;9.15;;;13.70;84.80;;;;;;6275449;22;20424;-74
2023/01/07 09:21:37;;;;;;;15.60;10.00;;;13.70;84.70;;;;;;6248051;22;20321;-75
2023/01/07 09:24:03;;;;;;;17.35;10.38;;;13.70;84.70;;;;;;6275510;22;20000;-75
2023/01/07 09:26:29;;;;;;;15.38;10.02;;;13.80;84.70;;;;;;6275298;22;20011;-74
2023/01/07 09:28:55;;;;;;;18.83;10.10;;;13.80;84.70;;;;;;6275416;22;20003;-76
2023/01/07 09:31:21;;;;;;;16.38;10.48;;;13.80;84.50;;;;;;6275634;22;20013;-73
2023/01/07 09:33:47;;;;;;;14.30;10.40;;;13.80;84.60;;;;;;6275531;22;19995;-75
2023/01/07 09:36:13;;;;;;;16.13;10.63;;;13.80;84.50;;;;;;6275170;22;20061;-73
2023/01/07 09:38:39;;;;;;;17.63;11.40;;;13.70;84.40;;;;;;6248291;22;20030;-75
2023/01/07 09:41:30;;;;;;;15.77;10.43;;;13.70;84.30;;;;;;6248046;22;20008;-75
2023/01/07 09:44:06;;;;;;;15.52;11.27;;;13.70;84.30;;;;;;6275638;22;20000;-76
2023/01/07 09:46:32;;;;;;;17.88;10.93;;;13.70;84.60;;;;;;6248061;22;20019;-71
2023/01/07 09:49:01;;;;;;;22.55;11.07;;;13.80;84.50;;;;;;6248150;22;20329;-70
2023/01/07 09:51:38;;;;;;;17.08;10.93;;;13.90;84.60;;;;;;6275716;22;20011;-70
2023/01/07 09:54:12;;;;;;;17.17;10.13;;;13.80;84.10;;;;;;6275027;22;20000;-68
2023/01/07 09:56:38;;;;;;;;;;;13.90;84.60;;;;;;6248281;22;20008;-69
2023/01/07 09:59:05;;;;;;;18.13;10.50;;;14.00;84.80;;;;;;6275216;22;19899;-69
2023/01/07 10:01:38;;;;;;;16.35;10.88;;;14.10;84.40;;;;;;6248098;22;20094;-68
2023/01/07 10:04:41;;;;;;;18.00;10.32;;;14.10;84.20;;;;;;6247912;22;20047;-68
2023/01/07 10:07:43;;;;;;;17.00;10.75;;;14.10;84.20;;;;;;6242530;23;20486;-68
2023/01/07 10:10:34;;;;;;;19.88;10.48;;;14.10;84.20;;;;;;6244288;22;20000;-68
2023/01/07 10:13:18;;;;;;;21.48;11.02;;;14.20;84.40;;;;;;6242555;23;20344;-70
2023/01/07 10:15:44;;;;;;;20.20;12.38;;;14.30;84.10;;;;;;6244313;23;20011;-69
2023/01/07 10:18:32;;;;;;;17.33;10.57;;;14.30;84.00;;;;;;6244409;22;20004;-69
2023/01/07 10:21:15;;;;;;;24.00;10.57;;;14.20;83.80;;;;;;6243025;23;20000;-69
2023/01/07 10:23:44;;;;;;;18.98;12.02;;;14.30;84.00;;;;;;6243044;23;20004;-70
2023/01/07 10:26:38;;;;;;;18.60;10.32;;;14.30;84.10;;;;;;6242288;23;20030;-69
2023/01/07 10:29:11;;;;;;;20.58;11.15;;;14.40;84.30;;;;;;6241431;23;20016;-69
2023/01/07 10:31:37;;;;;;;14.45;10.48;;;14.40;84.10;;;;;;6244412;23;19997;-68
2023/01/07 10:34:11;;;;;;;17.27;11.48;;;14.40;84.10;;;;;;6244521;22;20078;-69
2023/01/07 10:36:44;;;;;;;16.60;10.57;;;14.40;84.00;;;;;;6243879;22;19996;-69
2023/01/07 10:39:19;;;;;;;18.73;10.98;;;14.50;84.00;;;;;;6244264;22;20004;-68
2023/01/07 10:41:58;;;;;;;16.98;10.32;;;14.50;84.50;;;;;;6243919;22;20003;-69
2023/01/07 10:44:32;;;;;;;16.45;10.75;;;14.50;83.70;;;;;;6242193;23;20385;-69
2023/01/07 10:47:01;;;;;;;17.30;10.23;;;14.50;83.80;;;;;;6242244;23;20019;-68
2023/01/07 10:49:52;;;;;;;16.88;10.40;;;14.50;83.80;;;;;;6244040;23;19996;-68
2023/01/07 10:52:40;;;;;;;17.25;10.48;;;14.60;83.90;;;;;;6242401;23;20177;-68
2023/01/07 10:55:16;;;;;;;17.63;11.93;;;14.60;83.80;;;;;;6243822;23;20000;-69
2023/01/07 10:57:43;;;;;;;18.70;11.93;;;14.70;83.80;;;;;;6242261;23;20345;-69
2023/01/07 11:00:14;;;;;;;18.65;11.73;;;14.80;83.80;;;;;;6243621;22;20001;-69
2023/01/07 11:02:45;;;;;;;18.92;11.48;;;14.90;83.50;;;;;;6241795;23;20393;-68
2023/01/07 11:05:11;;;;;;;17.20;11.63;;;14.90;83.20;;;;;;6243720;22;20000;-69
2023/01/07 11:07:42;;;;;;;16.83;12.55;;;15.00;82.90;;;;;;6258499;22;20322;-70
2023/01/07 11:10:18;;;;;;;21.38;12.57;;;15.00;82.80;;;;;;6274564;22;20010;-69
2023/01/07 11:12:57;;;;;;;23.65;12.23;;;15.00;82.90;;;;;;6274447;22;20007;-69
2023/01/07 11:15:32;;;;;;;15.05;11.18;;;15.10;82.80;;;;;;6247127;22;20003;-68
2023/01/07 11:18:04;;;;;;;17.63;12.35;;;15.10;83.20;;;;;;6247182;22;20034;-70
2023/01/07 11:20:46;;;;;;;17.77;12.52;;;15.10;83.10;;;;;;6247060;22;20027;-68
2023/01/07 11:23:33;;;;;;;19.85;12.55;;;15.10;82.90;;;;;;6247390;22;20008;-68
2023/01/07 11:26:17;;;;;;;22.50;14.02;;;15.10;83.00;;;;;;6274417;22;20035;-68
2023/01/07 11:28:53;;;;;;;20.95;12.73;;;15.20;82.90;;;;;;6275020;22;20367;-69
2023/01/07 11:31:40;;;;;;;19.70;12.00;;;15.20;82.90;;;;;;6274603;22;20011;-70
2023/01/07 11:34:14;;;;;;;22.55;12.30;;;15.20;82.30;;;;;;6246813;22;20015;-69
2023/01/07 11:36:41;;;;;;;19.33;13.13;;;15.20;82.80;;;;;;6247311;22;20007;-69
2023/01/07 11:39:17;;;;;;;19.80;11.25;;;15.30;82.30;;;;;;6274818;22;20000;-69
2023/01/07 11:41:54;;;;;;;19.90;12.80;;;15.30;81.90;;;;;;6247650;22;20105;-70
2023/01/07 11:44:19;;;;;;;18.27;12.50;;;15.30;82.10;;;;;;6248051;22;20113;-70
2023/01/07 11:46:45;;;;;;;17.52;11.32;;;15.30;82.00;;;;;;6247410;22;20027;-68
2023/01/07 11:49:26;;;;;;;16.60;12.10;;;15.20;81.80;;;;;;6275006;22;20051;-69
2023/01/07 11:51:53;;;;;;;17.40;11.45;;;15.20;82.70;;;;;;6275082;22;20419;-70
2023/01/07 11:54:25;;;;;;;21.10;11.75;;;15.20;81.80;;;;;;6247510;22;20391;-68
2023/01/07 11:56:51;;;;;;;17.00;11.75;;;15.30;82.00;;;;;;6247219;22;20065;-69
2023/01/07 11:59:20;;;;;;;17.13;12.05;;;15.30;81.90;;;;;;6247735;22;20000;-70
2023/01/07 12:01:51;;;;;;;18.35;11.70;;;15.30;82.00;;;;;;6274671;22;20079;-68
2023/01/07 12:04:22;;;;;;;17.33;10.85;;;15.30;81.90;;;;;;6275796;22;20000;-69
2023/01/07 12:06:51;;;;;;;20.13;12.25;;;15.40;82.60;;;;;;6248892;22;20408;-69
2023/01/07 12:09:17;;;;;;;17.60;12.23;;;15.50;82.00;;;;;;6276537;22;20420;-68
2023/01/07 12:11:44;;;;;;;16.27;11.13;;;15.50;82.00;;;;;;6249251;22;20075;-69
2023/01/07 12:14:15;;;;;;;18.65;12.20;;;15.60;82.00;;;;;;6249148;22;20429;-69
2023/01/07 12:16:43;;;;;;;16.55;11.82;;;15.60;81.80;;;;;;6276048;22;20031;-68
2023/01/07 12:19:39;;;;;;;21.15;11.20;;;15.70;82.00;;;;;;6276283;22;20004;-70
2023/01/07 12:22:29;;;;;;;15.15;11.60;;;15.70;82.20;;;;;;6276527;22;19995;-69
2023/01/07 12:25:07;;;;;;;22.85;12.88;;;15.70;82.30;;;;;;6248869;22;20015;-70
2023/01/07 12:27:35;;;;;;;16.35;11.60;;;15.70;81.90;;;;;;6249139;22;20456;-69
2023/01/07 12:30:04;;;;;;;18.85;12.38;;;15.70;82.40;;;;;;6276017;22;19996;-68
2023/01/07 12:32:42;;;;;;;16.65;11.60;;;15.70;82.20;;;;;;6248972;22;20407;-70
2023/01/07 12:35:17;;;;;;;20.73;11.38;;;15.70;82.30;;;;;;6276176;22;20396;-68
2023/01/07 12:38:08;;;;;;;15.00;11.10;;;15.80;82.00;;;;;;6276235;22;20014;-69
2023/01/07 12:40:52;;;;;;;15.98;11.48;;;15.70;82.10;;;;;;6249169;22;20026;-69
2023/01/07 12:43:39;;;;;;;16.17;10.48;;;15.70;81.70;;;;;;6276507;22;20423;-70
2023/01/07 12:46:11;;;;;;;17.98;12.32;;;15.70;81.70;;;;;;6248760;22;20068;-71
2023/01/07 12:49:22;;;;;;;19.88;11.88;;;15.70;81.90;;;;;;6275891;22;20003;-71
2023/01/07 12:52:11;;;;;;;19.48;11.98;;;15.70;82.40;;;;;;6255516;22;20086;-72
2023/01/07 12:54:51;;;;;;;18.70;12.35;;;15.70;82.40;;;;;;6247165;22;20426;-71
2023/01/07 12:57:32;;;;;;;18.40;12.20;;;15.70;82.60;;;;;;6248575;22;20297;-71
2023/01/07 13:00:01;;;;;;;17.30;12.25;;;15.70;82.50;;;;;;6275608;22;20281;-75
2023/01/07 13:02:40;;;;;;;22.65;11.82;;;15.70;82.60;;;;;;6275312;22;20336;-76
2023/01/07 13:05:20;;;;;;;19.75;11.82;;;15.70;82.70;;;;;;6248818;22;20003;-78
2023/01/07 13:08:14;;;;;;;18.90;11.13;;;15.70;82.20;;;;;;6275627;22;20023;-72
2023/01/07 13:10:41;;;;;;;18.58;11.45;;;15.70;82.90;;;;;;6253767;22;20012;-72
2023/01/07 13:13:19;;;;;;;16.15;11.60;;;15.70;82.20;;;;;;6276261;22;20081;-72
2023/01/07 13:15:47;;;;;;;15.93;11.45;;;15.70;82.10;;;;;;6275949;22;19996;-71
2023/01/07 13:18:16;;;;;;;18.23;11.40;;;15.70;82.10;;;;;;6248223;22;20003;-70
2023/01/07 13:21:01;;;;;;;17.17;11.55;;;15.70;82.10;;;;;;6275363;22;20003;-72
2023/01/07 13:23:49;;;;;;;15.90;11.43;;;15.60;82.70;;;;;;6273998;22;20344;-72
2023/01/07 13:26:53;;;;;;;16.92;11.95;;;15.60;82.70;;;;;;6275686;22;20012;-72
2023/01/07 13:29:38;;;;;;;15.77;11.50;;;15.60;82.30;;;;;;6248687;22;20031;-72
2023/01/07 13:32:06;;;;;;;18.23;11.65;;;15.60;82.20;;;;;;6248676;22;20088;-73
2023/01/07 13:34:41;;;;;;;17.83;11.30;;;15.60;83.00;;;;;;6275591;22;20007;-71
2023/01/07 13:37:38;;;;;;;15.95;11.13;;;15.50;82.70;;;;;;6274904;22;19996;-70
2023/01/07 13:40:22;;;;;;;18.50;11.70;;;15.50;82.70;;;;;;6275329;22;19996;-72
2023/01/07 13:42:52;;;;;;;19.95;11.65;;;15.50;82.80;;;;;;6248174;22;20069;-74
2023/01/07 13:45:24;;;;;;;15.07;11.38;;;15.50;82.30;;;;;;6274917;22;20050;-75
2023/01/07 13:47:56;;;;;;;18.02;11.73;;;15.40;82.80;;;;;;6275116;22;20094;-71
2023/01/07 13:50:30;;;;;;;27.05;13.15;;;15.50;82.20;;;;;;6275222;22;20413;-69
2023/01/07 13:53:04;;;;;;;17.67;11.90;;;15.50;83.00;;;;;;6275455;22;20000;-75
2023/01/07 13:55:31;;;;;;;14.70;10.85;;;15.40;83.00;;;;;;6246968;22;20008;-72
2023/01/07 13:57:57;;;;;;;19.75;12.20;;;15.40;82.40;;;;;;6247301;22;20014;-72